sensor_id;sensor_type;location;lat;lon;timestamp;pressure;altitude;pressure_sealevel;temperature;humidity
69221;BME280;56331;51.992;20.910;2022-11-15T00:01:09;100610.49;;;21.52;44.12
69221;BME280;56331;51.992;20.910;2022-11-15T00:03:38;100614.06;;;21.52;44.20
69221;BME280;56331;51.992;20.910;2022-11-15T00:06:04;100604.37;;;21.52;44.19
69221;BME280;56331;51.992;20.910;2022-11-15T00:08:31;100606.56;;;21.53;44.21
69221;BME280;56331;51.992;20.910;2022-11-15T00:10:59;100604.37;;;21.52;44.26
69221;BME280;56331;51.992;20.910;2022-11-15T00:13:26;100593.28;;;21.52;44.30
69221;BME280;56331;51.992;20.910;2022-11-15T00:15:58;100592.70;;;21.53;44.34
69221;BME280;56331;51.992;20.910;2022-11-15T00:18:25;100586.70;;;21.51;44.27
69221;BME280;56331;51.992;20.910;2022-11-15T00:20:54;100584.16;;;21.52;44.30
69221;BME280;56331;51.992;20.910;2022-11-15T00:23:22;100581.16;;;21.51;44.30
69221;BME280;56331;51.992;20.910;2022-11-15T00:25:56;100586.92;;;21.52;44.33
69221;BME280;56331;51.992;20.910;2022-11-15T00:28:25;100579.77;;;21.51;44.29
69221;BME280;56331;51.992;20.910;2022-11-15T00:30:51;100580.90;;;21.50;44.33
69221;BME280;56331;51.992;20.910;2022-11-15T00:33:18;100573.97;;;21.50;44.37
69221;BME280;56331;51.992;20.910;2022-11-15T00:35:47;100572.58;;;21.50;44.36
69221;BME280;56331;51.992;20.910;2022-11-15T00:38:13;100562.88;;;21.50;44.29
69221;BME280;56331;51.992;20.910;2022-11-15T00:40:40;100573.39;;;21.50;44.31
69221;BME280;56331;51.992;20.910;2022-11-15T00:43:07;100561.27;;;21.49;44.31
69221;BME280;56331;51.992;20.910;2022-11-15T00:45:33;100561.27;;;21.49;44.37
69221;BME280;56331;51.992;20.910;2022-11-15T00:48:00;100557.11;;;21.49;44.34
69221;BME280;56331;51.992;20.910;2022-11-15T00:50:26;100554.34;;;21.49;44.35
69221;BME280;56331;51.992;20.910;2022-11-15T00:52:53;100546.61;;;21.48;44.32
69221;BME280;56331;51.992;20.910;2022-11-15T00:55:19;100544.06;;;21.49;44.34
69221;BME280;56331;51.992;20.910;2022-11-15T00:57:46;100543.25;;;21.49;44.41
69221;BME280;56331;51.992;20.910;2022-11-15T01:00:14;100543.25;;;21.49;44.43
69221;BME280;56331;51.992;20.910;2022-11-15T01:02:40;100541.06;;;21.48;44.34
69221;BME280;56331;51.992;20.910;2022-11-15T01:05:08;100532.48;;;21.47;44.30
69221;BME280;56331;51.992;20.910;2022-11-15T01:07:37;100520.02;;;21.47;44.36
69221;BME280;56331;51.992;20.910;2022-11-15T01:10:06;100522.20;;;21.48;44.35
69221;BME280;56331;51.992;20.910;2022-11-15T01:12:35;100508.92;;;21.47;44.37
69221;BME280;56331;51.992;20.910;2022-11-15T01:15:02;100508.92;;;21.47;44.38
69221;BME280;56331;51.992;20.910;2022-11-15T01:17:28;100500.03;;;21.48;44.39
69221;BME280;56331;51.992;20.910;2022-11-15T01:19:56;100500.61;;;21.47;44.37
69221;BME280;56331;51.992;20.910;2022-11-15T01:22:22;100492.88;;;21.47;44.46
69221;BME280;56331;51.992;20.910;2022-11-15T01:24:50;100493.45;;;21.46;44.44
69221;BME280;56331;51.992;20.910;2022-11-15T01:27:17;100500.97;;;21.46;44.36
69221;BME280;56331;51.992;20.910;2022-11-15T01:29:44;100494.84;;;21.46;44.30
69221;BME280;56331;51.992;20.910;2022-11-15T01:32:10;100495.16;;;21.45;44.27
69221;BME280;56331;51.992;20.910;2022-11-15T01:34:37;100497.61;;;21.46;44.38
69221;BME280;56331;51.992;20.910;2022-11-15T01:37:03;100494.03;;;21.46;44.30
69221;BME280;56331;51.992;20.910;2022-11-15T01:39:29;100489.88;;;21.46;44.29
69221;BME280;56331;51.992;20.910;2022-11-15T01:41:56;100481.30;;;21.45;44.27
69221;BME280;56331;51.992;20.910;2022-11-15T01:47:04;100484.08;;;21.45;44.30
69221;BME280;56331;51.992;20.910;2022-11-15T01:49:33;100479.69;;;21.44;44.25
69221;BME280;56331;51.992;20.910;2022-11-15T01:52:03;100474.15;;;21.44;44.24
69221;BME280;56331;51.992;20.910;2022-11-15T01:54:30;100477.73;;;21.44;44.26
69221;BME280;56331;51.992;20.910;2022-11-15T01:57:03;100470.31;;;21.42;44.26
69221;BME280;56331;51.992;20.910;2022-11-15T01:59:30;100469.73;;;21.43;44.35
69221;BME280;56331;51.992;20.910;2022-11-15T02:01:57;100465.03;;;21.43;44.32
69221;BME280;56331;51.992;20.910;2022-11-15T02:04:26;100459.23;;;21.42;44.22
69221;BME280;56331;51.992;20.910;2022-11-15T02:06:53;100457.84;;;21.42;44.17
69221;BME280;56331;51.992;20.910;2022-11-15T02:09:20;100462.81;;;21.43;44.26
69221;BME280;56331;51.992;20.910;2022-11-15T02:11:47;100462.81;;;21.43;44.24
69221;BME280;56331;51.992;20.910;2022-11-15T02:14:18;100463.64;;;21.43;44.19
69221;BME280;56331;51.992;20.910;2022-11-15T02:25:23;100446.18;;;21.43;44.26
69221;BME280;56331;51.992;20.910;2022-11-15T02:36:41;100440.73;;;21.40;44.14
69221;BME280;56331;51.992;20.910;2022-11-15T02:41:51;100434.16;;;21.38;44.26
69221;BME280;56331;51.992;20.910;2022-11-15T02:44:16;100427.81;;;21.38;44.21
69221;BME280;56331;51.992;20.910;2022-11-15T02:46:54;100423.95;;;21.36;44.21
69221;BME280;56331;51.992;20.910;2022-11-15T02:49:46;100419.20;;;21.37;44.24
69221;BME280;56331;51.992;20.910;2022-11-15T02:52:14;100417.59;;;21.36;44.16
69221;BME280;56331;51.992;20.910;2022-11-15T02:54:41;100419.20;;;21.37;44.23
69221;BME280;56331;51.992;20.910;2022-11-15T02:57:16;100416.53;;;21.34;44.19
69221;BME280;56331;51.992;20.910;2022-11-15T03:08:18;100401.77;;;21.36;43.54
69221;BME280;56331;51.992;20.910;2022-11-15T03:19:44;100393.78;;;21.35;42.71
69221;BME280;56331;51.992;20.910;2022-11-15T03:22:13;100392.17;;;21.34;42.57
69221;BME280;56331;51.992;20.910;2022-11-15T03:24:39;100378.32;;;21.34;42.33
69221;BME280;56331;51.992;20.910;2022-11-15T03:27:08;100372.55;;;21.33;42.13
69221;BME280;56331;51.992;20.910;2022-11-15T03:29:43;100367.81;;;21.33;42.10
69221;BME280;56331;51.992;20.910;2022-11-15T03:32:07;100366.43;;;21.33;41.97
69221;BME280;56331;51.992;20.910;2022-11-15T03:34:56;100371.48;;;21.31;41.72
69221;BME280;56331;51.992;20.910;2022-11-15T03:37:24;100365.95;;;21.31;41.76
69221;BME280;56331;51.992;20.910;2022-11-15T03:39:51;100371.17;;;21.33;41.61
69221;BME280;56331;51.992;20.910;2022-11-15T03:42:25;100359.60;;;21.31;41.48
69221;BME280;56331;51.992;20.910;2022-11-15T03:45:16;100357.86;;;21.32;41.44
69221;BME280;56331;51.992;20.910;2022-11-15T03:47:47;100355.09;;;21.32;41.27
69221;BME280;56331;51.992;20.910;2022-11-15T03:50:17;100347.36;;;21.32;41.18
69221;BME280;56331;51.992;20.910;2022-11-15T03:52:46;100349.00;;;21.33;41.07
69221;BME280;56331;51.992;20.910;2022-11-15T03:55:16;100348.16;;;21.32;40.96
69221;BME280;56331;51.992;20.910;2022-11-15T03:57:44;100345.97;;;21.32;40.94
69221;BME280;56331;51.992;20.910;2022-11-15T04:03:05;100341.23;;;21.32;40.75
69221;BME280;56331;51.992;20.910;2022-11-15T04:05:33;100336.53;;;21.33;41.13
69221;BME280;56331;51.992;20.910;2022-11-15T04:08:00;100326.83;;;21.33;41.47
69221;BME280;56331;51.992;20.910;2022-11-15T04:10:26;100319.91;;;21.33;41.50
69221;BME280;56331;51.992;20.910;2022-11-15T04:12:53;100328.22;;;21.33;41.47
69221;BME280;56331;51.992;20.910;2022-11-15T04:15:22;100323.48;;;21.33;41.47
69221;BME280;56331;51.992;20.910;2022-11-15T04:17:51;100312.14;;;21.32;41.49
69221;BME280;56331;51.992;20.910;2022-11-15T04:20:20;100313.53;;;21.32;41.55
69221;BME280;56331;51.992;20.910;2022-11-15T04:23:08;100312.14;;;21.32;41.55
69221;BME280;56331;51.992;20.910;2022-11-15T04:25:59;100303.03;;;21.32;41.64
69221;BME280;56331;51.992;20.910;2022-11-15T04:28:26;100306.38;;;21.31;41.71
69221;BME280;56331;51.992;20.910;2022-11-15T04:30:53;100304.41;;;21.32;41.77
69221;BME280;56331;51.992;20.910;2022-11-15T04:33:20;100307.19;;;21.32;41.91
69221;BME280;56331;51.992;20.910;2022-11-15T04:35:49;100300.83;;;21.31;41.94
69221;BME280;56331;51.992;20.910;2022-11-15T04:38:38;100301.64;;;21.32;41.87
69221;BME280;56331;51.992;20.910;2022-11-15T04:41:05;100295.30;;;21.31;41.90
69221;BME280;56331;51.992;20.910;2022-11-15T04:43:31;100298.88;;;21.32;41.98
69221;BME280;56331;51.992;20.910;2022-11-15T04:45:58;100304.19;;;21.31;41.97
69221;BME280;56331;51.992;20.910;2022-11-15T04:48:24;100301.64;;;21.32;42.02
69221;BME280;56331;51.992;20.910;2022-11-15T04:50:51;100300.83;;;21.31;42.06
69221;BME280;56331;51.992;20.910;2022-11-15T04:53:17;100296.67;;;21.31;42.11
69221;BME280;56331;51.992;20.910;2022-11-15T04:55:45;100298.64;;;21.31;42.13
69221;BME280;56331;51.992;20.910;2022-11-15T04:58:12;100296.67;;;21.31;42.17
69221;BME280;56331;51.992;20.910;2022-11-15T05:00:40;100295.88;;;21.31;42.16
69221;BME280;56331;51.992;20.910;2022-11-15T05:03:08;100293.69;;;21.30;42.19
69221;BME280;56331;51.992;20.910;2022-11-15T05:05:54;100299.45;;;21.31;42.18
69221;BME280;56331;51.992;20.910;2022-11-15T05:08:20;100287.08;;;21.29;42.26
69221;BME280;56331;51.992;20.910;2022-11-15T05:10:47;100290.66;;;21.29;42.25
69221;BME280;56331;51.992;20.910;2022-11-15T05:13:14;100290.66;;;21.29;42.27
69221;BME280;56331;51.992;20.910;2022-11-15T05:15:40;100289.27;;;21.29;42.31
69221;BME280;56331;51.992;20.910;2022-11-15T05:18:06;100294.23;;;21.30;42.31
69221;BME280;56331;51.992;20.910;2022-11-15T05:20:33;100284.31;;;21.29;42.31
69221;BME280;56331;51.992;20.910;2022-11-15T05:23:00;100285.38;;;21.30;42.35
69221;BME280;56331;51.992;20.910;2022-11-15T05:25:26;100290.08;;;21.30;42.38
69221;BME280;56331;51.992;20.910;2022-11-15T05:27:53;100288.14;;;21.30;42.39
69221;BME280;56331;51.992;20.910;2022-11-15T05:30:20;100283.98;;;21.30;42.44
69221;BME280;56331;51.992;20.910;2022-11-15T05:32:46;100280.05;;;21.31;42.46
69221;BME280;56331;51.992;20.910;2022-11-15T05:35:30;100281.22;;;21.30;42.46
69221;BME280;56331;51.992;20.910;2022-11-15T05:37:58;100282.60;;;21.30;42.43
69221;BME280;56331;51.992;20.910;2022-11-15T05:40:26;100281.77;;;21.30;42.43
69221;BME280;56331;51.992;20.910;2022-11-15T05:42:54;100277.06;;;21.30;42.42
69221;BME280;56331;51.992;20.910;2022-11-15T05:45:21;100275.42;;;21.29;42.47
69221;BME280;56331;51.992;20.910;2022-11-15T05:47:48;100278.19;;;21.29;42.50
69221;BME280;56331;51.992;20.910;2022-11-15T05:50:17;100280.16;;;21.29;42.51
69221;BME280;56331;51.992;20.910;2022-11-15T05:52:45;100280.38;;;21.30;42.45
69221;BME280;56331;51.992;20.910;2022-11-15T05:55:13;100276.00;;;21.29;42.46
69221;BME280;56331;51.992;20.910;2022-11-15T05:57:40;100277.39;;;21.29;42.45
69221;BME280;56331;51.992;20.910;2022-11-15T06:00:07;100274.03;;;21.29;42.50
69221;BME280;56331;51.992;20.910;2022-11-15T06:02:35;100275.42;;;21.29;42.53
69221;BME280;56331;51.992;20.910;2022-11-15T06:05:01;100273.81;;;21.28;42.51
69221;BME280;56331;51.992;20.910;2022-11-15T06:07:29;100276.58;;;21.28;42.51
69221;BME280;56331;51.992;20.910;2022-11-15T06:09:55;100275.78;;;21.28;42.53
69221;BME280;56331;51.992;20.910;2022-11-15T06:12:22;100278.19;;;21.29;42.49
69221;BME280;56331;51.992;20.910;2022-11-15T06:14:48;100277.16;;;21.28;42.52
69221;BME280;56331;51.992;20.910;2022-11-15T06:17:15;100282.70;;;21.28;42.53
69221;BME280;56331;51.992;20.910;2022-11-15T06:19:41;100277.71;;;21.27;42.57
69221;BME280;56331;51.992;20.910;2022-11-15T06:22:08;100277.39;;;21.29;42.70
69221;BME280;56331;51.992;20.910;2022-11-15T06:24:35;100281.31;;;21.28;42.75
69221;BME280;56331;51.992;20.910;2022-11-15T06:27:01;100289.62;;;21.28;42.66
69221;BME280;56331;51.992;20.910;2022-11-15T06:29:28;100286.86;;;21.28;42.80
69221;BME280;56331;51.992;20.910;2022-11-15T06:31:54;100290.76;;;21.27;42.92
69221;BME280;56331;51.992;20.910;2022-11-15T06:34:21;100286.02;;;21.27;43.05
69221;BME280;56331;51.992;20.910;2022-11-15T06:36:47;100283.25;;;21.27;42.75
69221;BME280;56331;51.992;20.910;2022-11-15T06:39:13;100285.22;;;21.27;42.46
69221;BME280;56331;51.992;20.910;2022-11-15T06:41:40;100284.64;;;21.27;42.31
69221;BME280;56331;51.992;20.910;2022-11-15T06:44:06;100285.80;;;21.26;42.22
69221;BME280;56331;51.992;20.910;2022-11-15T06:46:33;100290.76;;;21.27;42.14
69221;BME280;56331;51.992;20.910;2022-11-15T06:49:00;100294.11;;;21.26;42.01
69221;BME280;56331;51.992;20.910;2022-11-15T06:51:26;100298.27;;;21.26;41.91
69221;BME280;56331;51.992;20.910;2022-11-15T06:53:52;100298.49;;;21.27;41.92
69221;BME280;56331;51.992;20.910;2022-11-15T06:56:21;100292.73;;;21.26;41.86
69221;BME280;56331;51.992;20.910;2022-11-15T06:58:48;100294.91;;;21.27;41.81
69221;BME280;56331;51.992;20.910;2022-11-15T07:01:14;100288.80;;;21.27;41.70
69221;BME280;56331;51.992;20.910;2022-11-15T07:03:41;100285.47;;;21.28;41.57
69221;BME280;56331;51.992;20.910;2022-11-15T07:06:09;100281.87;;;21.27;41.36
69221;BME280;56331;51.992;20.910;2022-11-15T07:08:36;100288.24;;;21.28;41.25
69221;BME280;56331;51.992;20.910;2022-11-15T07:11:04;100282.13;;;21.28;41.05
69221;BME280;56331;51.992;20.910;2022-11-15T07:13:32;100287.41;;;21.27;40.94
69221;BME280;56331;51.992;20.910;2022-11-15T07:16:07;100292.95;;;21.27;40.82
69221;BME280;56331;51.992;20.910;2022-11-15T07:18:36;100288.57;;;21.26;40.70
69221;BME280;56331;51.992;20.910;2022-11-15T07:21:05;100291.02;;;21.28;40.63
69221;BME280;56331;51.992;20.910;2022-11-15T07:23:32;100286.02;;;21.27;40.58
69221;BME280;56331;51.992;20.910;2022-11-15T07:25:59;100288.24;;;21.28;40.46
69221;BME280;56331;51.992;20.910;2022-11-15T07:28:26;100288.24;;;21.28;40.42
69221;BME280;56331;51.992;20.910;2022-11-15T07:30:52;100287.41;;;21.27;40.40
69221;BME280;56331;51.992;20.910;2022-11-15T07:33:19;100287.41;;;21.27;40.37
69221;BME280;56331;51.992;20.910;2022-11-15T07:35:46;100284.41;;;21.26;40.70
69221;BME280;56331;51.992;20.910;2022-11-15T07:38:16;100281.42;;;21.25;41.03
69221;BME280;56331;51.992;20.910;2022-11-15T07:40:46;100272.27;;;21.25;41.19
69221;BME280;56331;51.992;20.910;2022-11-15T07:43:12;100281.74;;;21.24;41.39
69221;BME280;56331;51.992;20.910;2022-11-15T07:45:44;100279.78;;;21.24;41.51
69221;BME280;56331;51.992;20.910;2022-11-15T07:48:11;100285.09;;;21.23;41.65
69221;BME280;56331;51.992;20.910;2022-11-15T07:50:42;100276.78;;;21.23;41.76
69221;BME280;56331;51.992;20.910;2022-11-15T07:53:09;100275.98;;;21.23;42.03
69221;BME280;56331;51.992;20.910;2022-11-15T07:55:36;100272.05;;;21.24;42.27
69221;BME280;56331;51.992;20.910;2022-11-15T07:58:05;100270.44;;;21.23;42.34
69221;BME280;56331;51.992;20.910;2022-11-15T08:00:32;100263.52;;;21.23;42.38
69221;BME280;56331;51.992;20.910;2022-11-15T08:05:39;100261.65;;;21.20;42.56
69221;BME280;56331;51.992;20.910;2022-11-15T08:08:06;100257.49;;;21.20;42.72
69221;BME280;56331;51.992;20.910;2022-11-15T08:10:33;100257.72;;;21.22;43.01
69221;BME280;56331;51.992;20.910;2022-11-15T08:13:01;100261.65;;;21.20;43.25
69221;BME280;56331;51.992;20.910;2022-11-15T08:15:29;100252.76;;;21.21;43.45
69221;BME280;56331;51.992;20.910;2022-11-15T08:18:02;100255.78;;;21.22;43.91
69221;BME280;56331;51.992;20.910;2022-11-15T08:20:29;100243.86;;;21.22;44.46
69221;BME280;56331;51.992;20.910;2022-11-15T08:22:57;100247.70;;;21.23;44.69
69221;BME280;56331;51.992;20.910;2022-11-15T08:25:25;100242.38;;;21.24;44.85
69221;BME280;56331;51.992;20.910;2022-11-15T08:27:53;100239.86;;;21.25;44.97
69221;BME280;56331;51.992;20.910;2022-11-15T08:30:20;100236.73;;;21.27;45.12
69221;BME280;56331;51.992;20.910;2022-11-15T08:32:52;100231.45;;;21.28;45.20
69221;BME280;56331;51.992;20.910;2022-11-15T08:35:16;100230.87;;;21.28;45.25
69221;BME280;56331;51.992;20.910;2022-11-15T08:37:42;100232.47;;;21.29;45.38
69221;BME280;56331;51.992;20.910;2022-11-15T08:40:10;100229.38;;;21.31;45.48
69221;BME280;56331;51.992;20.910;2022-11-15T08:42:37;100233.17;;;21.32;45.56
69221;BME280;56331;51.992;20.910;2022-11-15T08:45:04;100232.63;;;21.33;45.62
69221;BME280;56331;51.992;20.910;2022-11-15T08:47:31;100227.89;;;21.33;45.69
69221;BME280;56331;51.992;20.910;2022-11-15T08:49:57;100226.72;;;21.34;45.60
69221;BME280;56331;51.992;20.910;2022-11-15T08:52:23;100228.58;;;21.36;45.72
69221;BME280;56331;51.992;20.910;2022-11-15T08:54:51;100226.39;;;21.36;45.77
69221;BME280;56331;51.992;20.910;2022-11-15T08:57:17;100228.81;;;21.37;45.83
69221;BME280;56331;51.992;20.910;2022-11-15T08:59:44;100226.32;;;21.38;45.85
69221;BME280;56331;51.992;20.910;2022-11-15T09:02:12;100226.80;;;21.40;45.91
69221;BME280;56331;51.992;20.910;2022-11-15T09:04:41;100228.19;;;21.40;45.92
69221;BME280;56331;51.992;20.910;2022-11-15T09:07:10;100220.67;;;21.41;45.94
69221;BME280;56331;51.992;20.910;2022-11-15T09:09:37;100223.09;;;21.43;46.03
69221;BME280;56331;51.992;20.910;2022-11-15T09:12:05;100218.38;;;21.43;46.01
69221;BME280;56331;51.992;20.910;2022-11-15T09:14:32;100219.41;;;21.45;45.94
69221;BME280;56331;51.992;20.910;2022-11-15T09:16:59;100213.53;;;21.46;46.04
69221;BME280;56331;51.992;20.910;2022-11-15T09:19:26;100214.92;;;21.46;45.89
69221;BME280;56331;51.992;20.910;2022-11-15T09:21:52;100209.38;;;21.46;45.70
69221;BME280;56331;51.992;20.910;2022-11-15T09:24:19;100209.95;;;21.46;45.53
69221;BME280;56331;51.992;20.910;2022-11-15T09:26:46;100208.80;;;21.47;45.67
69221;BME280;56331;51.992;20.910;2022-11-15T09:29:12;100199.90;;;21.47;45.78
69221;BME280;56331;51.992;20.910;2022-11-15T09:31:39;100195.41;;;21.49;45.85
69221;BME280;56331;51.992;20.910;2022-11-15T09:34:05;100189.87;;;21.49;45.81
69221;BME280;56331;51.992;20.910;2022-11-15T09:36:32;100187.91;;;21.49;45.52
69221;BME280;56331;51.992;20.910;2022-11-15T09:38:58;100189.29;;;21.49;45.18
69221;BME280;56331;51.992;20.910;2022-11-15T09:49:41;100176.93;;;21.53;44.79
69221;BME280;56331;51.992;20.910;2022-11-15T09:52:08;100164.45;;;21.53;44.46
69221;BME280;56331;51.992;20.910;2022-11-15T09:54:37;100159.72;;;21.53;44.06
69221;BME280;56331;51.992;20.910;2022-11-15T09:57:16;100164.70;;;21.54;44.20
69221;BME280;56331;51.992;20.910;2022-11-15T10:05:08;100151.07;;;21.55;43.97
69221;BME280;56331;51.992;20.910;2022-11-15T10:07:55;100146.33;;;21.55;43.98
69221;BME280;56331;51.992;20.910;2022-11-15T10:10:31;100144.61;;;21.57;43.92
69221;BME280;56331;51.992;20.910;2022-11-15T10:12:57;100143.23;;;21.57;44.13
69221;BME280;56331;51.992;20.910;2022-11-15T10:15:25;100134.55;;;21.58;44.25
69221;BME280;56331;51.992;20.910;2022-11-15T10:20:42;100129.84;;;21.59;44.01
69221;BME280;56331;51.992;20.910;2022-11-15T10:23:11;100128.45;;;21.59;43.92
69221;BME280;56331;51.992;20.910;2022-11-15T10:25:37;100127.63;;;21.58;43.86
69221;BME280;56331;51.992;20.910;2022-11-15T10:30:50;100125.09;;;21.59;43.68
69221;BME280;56331;51.992;20.910;2022-11-15T10:47:33;100112.48;;;21.56;44.98
69221;BME280;56331;51.992;20.910;2022-11-15T10:49:19;100118.50;;;21.58;45.06
69221;BME280;56331;51.992;20.910;2022-11-15T10:52:24;100114.34;;;21.58;45.16
69221;BME280;56331;51.992;20.910;2022-11-15T10:54:37;100113.77;;;21.58;45.33
69221;BME280;56331;51.992;20.910;2022-11-15T10:57:14;100105.70;;;21.59;45.19
69221;BME280;56331;51.992;20.910;2022-11-15T10:59:37;100100.95;;;21.60;44.93
69221;BME280;56331;51.992;20.910;2022-11-15T11:05:02;100104.78;;;21.61;44.76
69221;BME280;56331;51.992;20.910;2022-11-15T11:07:34;100091.25;;;21.60;44.62
69221;BME280;56331;51.992;20.910;2022-11-15T11:12:34;100084.80;;;21.62;44.46
69221;BME280;56331;51.992;20.910;2022-11-15T11:15:09;100083.16;;;21.61;44.36
69221;BME280;56331;51.992;20.910;2022-11-15T11:23:02;100075.67;;;21.61;44.10
69221;BME280;56331;51.992;20.910;2022-11-15T11:28:37;100079.00;;;21.61;43.91
69221;BME280;56331;51.992;20.910;2022-11-15T11:34:00;100068.27;;;21.59;43.78
69221;BME280;56331;51.992;20.910;2022-11-15T11:36:40;100060.77;;;21.60;43.70
69221;BME280;56331;51.992;20.910;2022-11-15T11:40:08;100053.25;;;21.60;43.63
69221;BME280;56331;51.992;20.910;2022-11-15T11:44:51;100050.84;;;21.59;43.47
69221;BME280;56331;51.992;20.910;2022-11-15T11:47:23;100050.26;;;21.59;43.41
69221;BME280;56331;51.992;20.910;2022-11-15T11:49:53;100045.52;;;21.60;43.35
69221;BME280;56331;51.992;20.910;2022-11-15T11:55:37;100034.21;;;21.59;43.22
69221;BME280;56331;51.992;20.910;2022-11-15T12:00:58;100036.15;;;21.58;43.10
69221;BME280;56331;51.992;20.910;2022-11-15T12:03:48;100032.58;;;21.58;43.01
69221;BME280;56331;51.992;20.910;2022-11-15T12:08:52;100030.72;;;21.56;43.19
69221;BME280;56331;51.992;20.910;2022-11-15T12:13:49;100023.23;;;21.56;44.36
69221;BME280;56331;51.992;20.910;2022-11-15T12:16:23;100016.31;;;21.56;44.24
69221;BME280;56331;51.992;20.910;2022-11-15T12:18:53;100017.45;;;21.55;44.34
69221;BME280;56331;51.992;20.910;2022-11-15T12:29:44;100014.56;;;21.58;44.37
69221;BME280;56331;51.992;20.910;2022-11-15T12:32:26;100011.56;;;21.57;44.40
69221;BME280;56331;51.992;20.910;2022-11-15T12:34:53;100009.38;;;21.56;44.38
69221;BME280;56331;51.992;20.910;2022-11-15T12:40:23;100007.63;;;21.58;43.93
69221;BME280;56331;51.992;20.910;2022-11-15T12:45:44;100007.63;;;21.58;43.84
69221;BME280;56331;51.992;20.910;2022-11-15T12:50:58;99995.04;;;21.60;43.68
69221;BME280;56331;51.992;20.910;2022-11-15T12:53:27;99996.31;;;21.63;43.52
69221;BME280;56331;51.992;20.910;2022-11-15T13:06:55;99992.05;;;21.72;43.00
69221;BME280;56331;51.992;20.910;2022-11-15T13:17:48;99982.80;;;21.68;43.12
69221;BME280;56331;51.992;20.910;2022-11-15T13:20:21;99979.22;;;21.67;43.13
69221;BME280;56331;51.992;20.910;2022-11-15T13:23:13;99978.76;;;21.65;43.13
69221;BME280;56331;51.992;20.910;2022-11-15T13:33:45;99959.14;;;21.64;44.74
69221;BME280;56331;51.992;20.910;2022-11-15T13:36:20;99959.14;;;21.64;44.74
69221;BME280;56331;51.992;20.910;2022-11-15T13:38:44;99957.52;;;21.69;44.09
69221;BME280;56331;51.992;20.910;2022-11-15T13:43:44;99950.80;;;21.70;44.52
69221;BME280;56331;51.992;20.910;2022-11-15T13:46:25;99954.95;;;21.70;44.49
69221;BME280;56331;51.992;20.910;2022-11-15T13:49:01;99951.02;;;21.71;44.45
69221;BME280;56331;51.992;20.910;2022-11-15T13:54:29;99937.16;;;21.71;45.11
69221;BME280;56331;51.992;20.910;2022-11-15T13:57:02;99935.21;;;21.72;45.45
69221;BME280;56331;51.992;20.910;2022-11-15T13:59:30;99936.02;;;21.72;45.35
69221;BME280;56331;51.992;20.910;2022-11-15T14:01:58;99933.58;;;21.71;45.49
69221;BME280;56331;51.992;20.910;2022-11-15T14:04:27;99930.70;;;21.67;45.49
69221;BME280;56331;51.992;20.910;2022-11-15T14:07:01;99926.65;;;21.71;45.73
69221;BME280;56331;51.992;20.910;2022-11-15T14:12:02;99935.21;;;21.72;45.63
69221;BME280;56331;51.992;20.910;2022-11-15T14:14:31;99937.16;;;21.71;45.70
69221;BME280;56331;51.992;20.910;2022-11-15T14:16:59;99940.76;;;21.72;45.43
69221;BME280;56331;51.992;20.910;2022-11-15T14:22:08;99929.67;;;21.72;45.15
69221;BME280;56331;51.992;20.910;2022-11-15T14:24:36;99931.05;;;21.72;45.04
69221;BME280;56331;51.992;20.910;2022-11-15T14:29:48;99927.11;;;21.73;45.82
69221;BME280;56331;51.992;20.910;2022-11-15T14:34:53;99924.34;;;21.73;46.22
69221;BME280;56331;51.992;20.910;2022-11-15T14:37:27;99925.14;;;21.73;46.03
69221;BME280;56331;51.992;20.910;2022-11-15T14:39:51;99925.73;;;21.73;45.66
69221;BME280;56331;51.992;20.910;2022-11-15T14:42:18;99925.14;;;21.73;45.03
69221;BME280;56331;51.992;20.910;2022-11-15T14:44:46;99925.39;;;21.74;43.93
69221;BME280;56331;51.992;20.910;2022-11-15T14:47:12;99920.98;;;21.73;43.38
69221;BME280;56331;51.992;20.910;2022-11-15T14:49:39;99915.44;;;21.73;42.89
69221;BME280;56331;51.992;20.910;2022-11-15T14:52:23;99918.45;;;21.74;43.48
69221;BME280;56331;51.992;20.910;2022-11-15T14:54:51;99921.23;;;21.74;44.18
69221;BME280;56331;51.992;20.910;2022-11-15T14:57:18;99917.87;;;21.75;44.42
69221;BME280;56331;51.992;20.910;2022-11-15T14:59:44;99925.61;;;21.75;44.42
69221;BME280;56331;51.992;20.910;2022-11-15T15:02:15;99916.70;;;21.76;44.45
69221;BME280;56331;51.992;20.910;2022-11-15T15:04:41;99917.50;;;21.76;44.35
69221;BME280;56331;51.992;20.910;2022-11-15T15:07:07;99912.20;;;21.77;43.95
69221;BME280;56331;51.992;20.910;2022-11-15T15:09:34;99912.20;;;21.77;43.87
69221;BME280;56331;51.992;20.910;2022-11-15T15:12:00;99913.81;;;21.78;43.70
69221;BME280;56331;51.992;20.910;2022-11-15T15:14:28;99912.20;;;21.77;43.47
69221;BME280;56331;51.992;20.910;2022-11-15T15:16:55;99922.13;;;21.78;43.37
69221;BME280;56331;51.992;20.910;2022-11-15T15:19:22;99920.52;;;21.77;43.52
69221;BME280;56331;51.992;20.910;2022-11-15T15:21:48;99927.67;;;21.78;43.48
69221;BME280;56331;51.992;20.910;2022-11-15T15:24:15;99920.52;;;21.77;43.68
69221;BME280;56331;51.992;20.910;2022-11-15T15:26:41;99920.73;;;21.78;43.70
69221;BME280;56331;51.992;20.910;2022-11-15T15:29:09;99916.58;;;21.78;43.60
69221;BME280;56331;51.992;20.910;2022-11-15T15:31:38;99911.84;;;21.79;43.54
69221;BME280;56331;51.992;20.910;2022-11-15T15:34:04;99909.06;;;21.79;43.38
69221;BME280;56331;51.992;20.910;2022-11-15T15:36:31;99911.25;;;21.79;43.42
69221;BME280;56331;51.992;20.910;2022-11-15T15:38:58;99907.09;;;21.79;43.47